sensor_id;sensor_type;location;lat;lon;timestamp;temperature;humidity
47382;DHT22;33128;51.580;5.170;2024-01-27T00:01:55;8.00;99.90
47382;DHT22;33128;51.580;5.170;2024-01-27T00:04:21;7.90;99.90
47382;DHT22;33128;51.580;5.170;2024-01-27T00:06:47;7.90;99.90
47382;DHT22;33128;51.580;5.170;2024-01-27T00:09:12;7.80;99.90
47382;DHT22;33128;51.580;5.170;2024-01-27T00:11:38;7.80;99.90
47382;DHT22;33128;51.580;5.170;2024-01-27T00:14:03;7.80;99.90
47382;DHT22;33128;51.580;5.170;2024-01-27T00:16:35;7.80;99.90
47382;DHT22;33128;51.580;5.170;2024-01-27T00:19:01;7.90;99.90
47382;DHT22;33128;51.580;5.170;2024-01-27T00:21:29;7.80;99.90
47382;DHT22;33128;51.580;5.170;2024-01-27T00:23:55;7.80;99.90
47382;DHT22;33128;51.580;5.170;2024-01-27T00:26:26;7.90;99.90
47382;DHT22;33128;51.580;5.170;2024-01-27T00:28:52;8.00;99.90
47382;DHT22;33128;51.580;5.170;2024-01-27T00:31:17;8.00;99.90
47382;DHT22;33128;51.580;5.170;2024-01-27T00:33:43;8.00;99.90
47382;DHT22;33128;51.580;5.170;2024-01-27T00:36:08;8.00;99.90
47382;DHT22;33128;51.580;5.170;2024-01-27T00:38:34;8.00;99.90
47382;DHT22;33128;51.580;5.170;2024-01-27T00:41:00;8.00;99.90
47382;DHT22;33128;51.580;5.170;2024-01-27T00:43:25;8.00;99.90
47382;DHT22;33128;51.580;5.170;2024-01-27T00:45:51;7.90;99.90
47382;DHT22;33128;51.580;5.170;2024-01-27T00:48:16;7.90;99.90
47382;DHT22;33128;51.580;5.170;2024-01-27T00:50:42;7.80;99.90
47382;DHT22;33128;51.580;5.170;2024-01-27T00:53:07;7.80;99.90
47382;DHT22;33128;51.580;5.170;2024-01-27T00:55:33;7.80;99.90
47382;DHT22;33128;51.580;5.170;2024-01-27T00:57:58;7.70;99.90
47382;DHT22;33128;51.580;5.170;2024-01-27T01:00:24;7.70;99.90
47382;DHT22;33128;51.580;5.170;2024-01-27T01:02:50;7.70;99.90
47382;DHT22;33128;51.580;5.170;2024-01-27T01:05:15;7.70;99.90
47382;DHT22;33128;51.580;5.170;2024-01-27T01:07:41;7.60;99.90
47382;DHT22;33128;51.580;5.170;2024-01-27T01:10:07;7.60;99.90
47382;DHT22;33128;51.580;5.170;2024-01-27T01:12:35;7.60;99.90
47382;DHT22;33128;51.580;5.170;2024-01-27T01:15:00;7.60;99.90
47382;DHT22;33128;51.580;5.170;2024-01-27T01:17:26;7.60;99.90
47382;DHT22;33128;51.580;5.170;2024-01-27T01:19:54;7.60;99.90
47382;DHT22;33128;51.580;5.170;2024-01-27T01:22:20;7.50;99.90
47382;DHT22;33128;51.580;5.170;2024-01-27T01:24:45;7.60;99.90
47382;DHT22;33128;51.580;5.170;2024-01-27T01:27:11;7.60;99.90
47382;DHT22;33128;51.580;5.170;2024-01-27T01:29:37;7.60;99.90
47382;DHT22;33128;51.580;5.170;2024-01-27T01:32:02;7.60;99.90
47382;DHT22;33128;51.580;5.170;2024-01-27T01:34:29;7.60;99.90
47382;DHT22;33128;51.580;5.170;2024-01-27T01:36:54;7.60;99.90
47382;DHT22;33128;51.580;5.170;2024-01-27T01:39:20;7.60;99.90
47382;DHT22;33128;51.580;5.170;2024-01-27T01:41:45;7.60;99.90
47382;DHT22;33128;51.580;5.170;2024-01-27T01:44:11;7.60;99.90
47382;DHT22;33128;51.580;5.170;2024-01-27T01:46:37;7.60;99.90
47382;DHT22;33128;51.580;5.170;2024-01-27T01:49:03;7.60;99.90
47382;DHT22;33128;51.580;5.170;2024-01-27T01:51:28;7.60;99.90
47382;DHT22;33128;51.580;5.170;2024-01-27T01:53:57;7.50;99.90
47382;DHT22;33128;51.580;5.170;2024-01-27T01:56:23;7.50;99.90
47382;DHT22;33128;51.580;5.170;2024-01-27T01:58:49;7.60;99.90
47382;DHT22;33128;51.580;5.170;2024-01-27T02:01:16;7.50;99.90
47382;DHT22;33128;51.580;5.170;2024-01-27T02:03:54;7.50;99.90
47382;DHT22;33128;51.580;5.170;2024-01-27T02:06:20;7.60;99.90
47382;DHT22;33128;51.580;5.170;2024-01-27T02:08:49;7.60;99.90
47382;DHT22;33128;51.580;5.170;2024-01-27T02:11:15;7.60;99.90
47382;DHT22;33128;51.580;5.170;2024-01-27T02:13:41;7.60;99.90
47382;DHT22;33128;51.580;5.170;2024-01-27T02:16:06;7.70;99.90
47382;DHT22;33128;51.580;5.170;2024-01-27T02:18:32;8.50;99.90
47382;DHT22;33128;51.580;5.170;2024-01-27T02:21:00;9.30;99.90
47382;DHT22;33128;51.580;5.170;2024-01-27T02:23:26;9.80;99.90
47382;DHT22;33128;51.580;5.170;2024-01-27T02:25:52;10.30;99.90
47382;DHT22;33128;51.580;5.170;2024-01-27T02:28:17;10.70;99.90
47382;DHT22;33128;51.580;5.170;2024-01-27T02:30:43;10.90;99.90
47382;DHT22;33128;51.580;5.170;2024-01-27T02:33:09;11.10;99.90
47382;DHT22;33128;51.580;5.170;2024-01-27T02:35:34;11.30;99.90
47382;DHT22;33128;51.580;5.170;2024-01-27T02:38:00;11.50;99.90
47382;DHT22;33128;51.580;5.170;2024-01-27T02:40:29;11.50;99.90
47382;DHT22;33128;51.580;5.170;2024-01-27T02:42:54;11.60;99.90
47382;DHT22;33128;51.580;5.170;2024-01-27T02:45:20;11.60;99.90
47382;DHT22;33128;51.580;5.170;2024-01-27T02:47:45;11.70;99.90
47382;DHT22;33128;51.580;5.170;2024-01-27T02:50:11;11.90;99.90
47382;DHT22;33128;51.580;5.170;2024-01-27T02:52:37;11.90;99.90
47382;DHT22;33128;51.580;5.170;2024-01-27T02:55:03;11.90;99.90
47382;DHT22;33128;51.580;5.170;2024-01-27T02:57:30;11.90;99.90
47382;DHT22;33128;51.580;5.170;2024-01-27T02:59:56;11.90;99.90
47382;DHT22;33128;51.580;5.170;2024-01-27T03:02:21;12.00;99.90
47382;DHT22;33128;51.580;5.170;2024-01-27T03:04:47;12.00;99.90
47382;DHT22;33128;51.580;5.170;2024-01-27T03:07:12;12.00;99.90
47382;DHT22;33128;51.580;5.170;2024-01-27T03:09:38;12.10;99.90
47382;DHT22;33128;51.580;5.170;2024-01-27T03:12:05;12.00;99.90
47382;DHT22;33128;51.580;5.170;2024-01-27T03:14:34;12.10;99.90
47382;DHT22;33128;51.580;5.170;2024-01-27T03:16:59;12.20;99.90
47382;DHT22;33128;51.580;5.170;2024-01-27T03:19:25;12.10;99.90
47382;DHT22;33128;51.580;5.170;2024-01-27T03:21:51;12.20;99.90
47382;DHT22;33128;51.580;5.170;2024-01-27T03:24:16;12.10;99.90
47382;DHT22;33128;51.580;5.170;2024-01-27T03:26:42;12.20;99.90
47382;DHT22;33128;51.580;5.170;2024-01-27T03:29:07;12.30;99.90
47382;DHT22;33128;51.580;5.170;2024-01-27T03:31:33;12.20;99.90
47382;DHT22;33128;51.580;5.170;2024-01-27T03:34:02;12.20;99.90
47382;DHT22;33128;51.580;5.170;2024-01-27T03:36:28;12.30;99.90
47382;DHT22;33128;51.580;5.170;2024-01-27T03:38:56;12.30;99.90
47382;DHT22;33128;51.580;5.170;2024-01-27T03:41:22;12.30;99.90
47382;DHT22;33128;51.580;5.170;2024-01-27T03:43:48;12.40;99.90
47382;DHT22;33128;51.580;5.170;2024-01-27T03:46:14;12.40;99.90
47382;DHT22;33128;51.580;5.170;2024-01-27T03:48:39;12.40;99.90
47382;DHT22;33128;51.580;5.170;2024-01-27T03:51:05;12.40;99.90
47382;DHT22;33128;51.580;5.170;2024-01-27T03:53:31;12.40;99.90
47382;DHT22;33128;51.580;5.170;2024-01-27T03:55:56;12.40;99.90
47382;DHT22;33128;51.580;5.170;2024-01-27T03:58:29;12.30;99.90
47382;DHT22;33128;51.580;5.170;2024-01-27T04:00:56;12.30;99.90
47382;DHT22;33128;51.580;5.170;2024-01-27T04:03:22;12.40;99.90
47382;DHT22;33128;51.580;5.170;2024-01-27T04:05:48;12.40;99.90
47382;DHT22;33128;51.580;5.170;2024-01-27T04:08:13;12.30;99.90
47382;DHT22;33128;51.580;5.170;2024-01-27T04:10:39;12.30;99.90
47382;DHT22;33128;51.580;5.170;2024-01-27T04:13:05;12.40;99.90
47382;DHT22;33128;51.580;5.170;2024-01-27T04:15:33;12.40;99.90
47382;DHT22;33128;51.580;5.170;2024-01-27T04:18:07;12.40;99.90
47382;DHT22;33128;51.580;5.170;2024-01-27T04:20:37;12.40;99.90
47382;DHT22;33128;51.580;5.170;2024-01-27T04:23:03;12.40;99.90
47382;DHT22;33128;51.580;5.170;2024-01-27T04:25:28;12.40;99.90
47382;DHT22;33128;51.580;5.170;2024-01-27T04:27:54;12.40;99.90
47382;DHT22;33128;51.580;5.170;2024-01-27T04:30:19;12.40;99.90
47382;DHT22;33128;51.580;5.170;2024-01-27T04:32:45;12.40;99.90
47382;DHT22;33128;51.580;5.170;2024-01-27T04:35:14;12.40;99.90
47382;DHT22;33128;51.580;5.170;2024-01-27T04:37:40;12.40;99.90
47382;DHT22;33128;51.580;5.170;2024-01-27T04:40:07;12.40;99.90
47382;DHT22;33128;51.580;5.170;2024-01-27T04:42:39;12.40;99.90
47382;DHT22;33128;51.580;5.170;2024-01-27T04:45:06;12.40;99.90
47382;DHT22;33128;51.580;5.170;2024-01-27T04:47:31;12.40;99.90
47382;DHT22;33128;51.580;5.170;2024-01-27T04:49:57;12.40;99.90
47382;DHT22;33128;51.580;5.170;2024-01-27T04:52:23;12.40;99.90
47382;DHT22;33128;51.580;5.170;2024-01-27T04:54:49;12.40;99.90
47382;DHT22;33128;51.580;5.170;2024-01-27T04:57:15;12.40;99.90
47382;DHT22;33128;51.580;5.170;2024-01-27T04:59:41;12.40;99.90
47382;DHT22;33128;51.580;5.170;2024-01-27T05:02:06;12.40;99.90
47382;DHT22;33128;51.580;5.170;2024-01-27T05:04:32;12.40;99.90
47382;DHT22;33128;51.580;5.170;2024-01-27T05:06:58;12.40;99.90
47382;DHT22;33128;51.580;5.170;2024-01-27T05:09:23;12.40;99.90
47382;DHT22;33128;51.580;5.170;2024-01-27T05:11:50;12.50;99.90
47382;DHT22;33128;51.580;5.170;2024-01-27T05:14:18;12.50;99.90
47382;DHT22;33128;51.580;5.170;2024-01-27T05:16:43;12.50;99.90
47382;DHT22;33128;51.580;5.170;2024-01-27T05:19:10;12.50;99.90
47382;DHT22;33128;51.580;5.170;2024-01-27T05:21:35;12.50;99.90
47382;DHT22;33128;51.580;5.170;2024-01-27T05:24:01;12.50;99.90
47382;DHT22;33128;51.580;5.170;2024-01-27T05:26:27;12.50;99.90
47382;DHT22;33128;51.580;5.170;2024-01-27T05:28:52;12.50;99.90
47382;DHT22;33128;51.580;5.170;2024-01-27T05:31:18;12.60;99.90
47382;DHT22;33128;51.580;5.170;2024-01-27T05:33:44;12.50;99.90
47382;DHT22;33128;51.580;5.170;2024-01-27T05:36:12;12.50;99.90
47382;DHT22;33128;51.580;5.170;2024-01-27T05:38:38;12.50;99.90
47382;DHT22;33128;51.580;5.170;2024-01-27T05:41:04;12.50;99.90
47382;DHT22;33128;51.580;5.170;2024-01-27T05:43:30;12.50;99.90
47382;DHT22;33128;51.580;5.170;2024-01-27T05:45:55;12.50;99.90
47382;DHT22;33128;51.580;5.170;2024-01-27T05:48:21;12.50;99.90
47382;DHT22;33128;51.580;5.170;2024-01-27T05:51:00;12.50;99.90
47382;DHT22;33128;51.580;5.170;2024-01-27T05:53:26;12.50;99.90
47382;DHT22;33128;51.580;5.170;2024-01-27T05:55:53;12.50;99.90
47382;DHT22;33128;51.580;5.170;2024-01-27T05:58:24;12.50;99.90
47382;DHT22;33128;51.580;5.170;2024-01-27T06:00:50;12.50;99.90
47382;DHT22;33128;51.580;5.170;2024-01-27T06:03:16;12.50;99.90
47382;DHT22;33128;51.580;5.170;2024-01-27T06:05:42;12.40;99.90
47382;DHT22;33128;51.580;5.170;2024-01-27T06:08:08;12.50;99.90
47382;DHT22;33128;51.580;5.170;2024-01-27T06:10:34;12.50;99.90
47382;DHT22;33128;51.580;5.170;2024-01-27T06:13:04;12.50;99.90
47382;DHT22;33128;51.580;5.170;2024-01-27T06:15:30;12.50;99.90
47382;DHT22;33128;51.580;5.170;2024-01-27T06:17:56;12.50;99.90
47382;DHT22;33128;51.580;5.170;2024-01-27T06:20:25;12.50;99.90
47382;DHT22;33128;51.580;5.170;2024-01-27T06:22:54;12.50;99.90
47382;DHT22;33128;51.580;5.170;2024-01-27T06:25:25;12.40;99.90
47382;DHT22;33128;51.580;5.170;2024-01-27T06:27:53;12.40;99.90
47382;DHT22;33128;51.580;5.170;2024-01-27T06:30:19;12.50;99.90
47382;DHT22;33128;51.580;5.170;2024-01-27T06:32:44;12.50;99.90
47382;DHT22;33128;51.580;5.170;2024-01-27T06:35:10;12.50;99.90
47382;DHT22;33128;51.580;5.170;2024-01-27T06:37:35;12.50;99.90
47382;DHT22;33128;51.580;5.170;2024-01-27T06:40:01;12.40;99.90
47382;DHT22;33128;51.580;5.170;2024-01-27T06:42:28;12.50;99.90
47382;DHT22;33128;51.580;5.170;2024-01-27T06:44:54;12.40;99.90
47382;DHT22;33128;51.580;5.170;2024-01-27T06:47:19;12.40;99.90
47382;DHT22;33128;51.580;5.170;2024-01-27T06:49:45;12.40;99.90
47382;DHT22;33128;51.580;5.170;2024-01-27T06:52:10;12.40;99.90
47382;DHT22;33128;51.580;5.170;2024-01-27T06:54:37;12.50;99.90
47382;DHT22;33128;51.580;5.170;2024-01-27T06:57:06;12.40;99.90
47382;DHT22;33128;51.580;5.170;2024-01-27T06:59:42;12.40;99.90
47382;DHT22;33128;51.580;5.170;2024-01-27T07:02:08;12.40;99.90
47382;DHT22;33128;51.580;5.170;2024-01-27T07:04:45;12.50;99.90
47382;DHT22;33128;51.580;5.170;2024-01-27T07:07:16;12.40;99.90
47382;DHT22;33128;51.580;5.170;2024-01-27T07:09:41;12.40;99.90
47382;DHT22;33128;51.580;5.170;2024-01-27T07:12:07;12.50;99.90
47382;DHT22;33128;51.580;5.170;2024-01-27T07:14:34;12.40;99.90
47382;DHT22;33128;51.580;5.170;2024-01-27T07:17:05;12.40;99.90
47382;DHT22;33128;51.580;5.170;2024-01-27T07:19:51;12.50;99.90
47382;DHT22;33128;51.580;5.170;2024-01-27T07:22:16;12.40;99.90
47382;DHT22;33128;51.580;5.170;2024-01-27T07:24:42;12.40;99.90
47382;DHT22;33128;51.580;5.170;2024-01-27T07:27:09;12.40;99.90
47382;DHT22;33128;51.580;5.170;2024-01-27T07:29:35;12.40;99.90
47382;DHT22;33128;51.580;5.170;2024-01-27T07:32:03;12.40;99.90
47382;DHT22;33128;51.580;5.170;2024-01-27T07:34:31;12.50;99.90
47382;DHT22;33128;51.580;5.170;2024-01-27T07:37:00;12.50;99.90
47382;DHT22;33128;51.580;5.170;2024-01-27T07:39:26;12.60;99.90
47382;DHT22;33128;51.580;5.170;2024-01-27T07:41:51;12.50;99.90
47382;DHT22;33128;51.580;5.170;2024-01-27T07:44:18;12.60;99.90
47382;DHT22;33128;51.580;5.170;2024-01-27T07:46:43;12.60;99.90
47382;DHT22;33128;51.580;5.170;2024-01-27T07:49:09;12.60;99.90
47382;DHT22;33128;51.580;5.170;2024-01-27T07:51:37;12.60;99.90
47382;DHT22;33128;51.580;5.170;2024-01-27T07:54:02;12.60;99.90
47382;DHT22;33128;51.580;5.170;2024-01-27T07:56:28;12.60;99.90
47382;DHT22;33128;51.580;5.170;2024-01-27T07:58:53;12.70;99.90
47382;DHT22;33128;51.580;5.170;2024-01-27T08:01:22;12.70;99.90
47382;DHT22;33128;51.580;5.170;2024-01-27T08:03:47;12.70;99.90
47382;DHT22;33128;51.580;5.170;2024-01-27T08:06:17;12.70;99.90
47382;DHT22;33128;51.580;5.170;2024-01-27T08:08:47;12.70;99.90
47382;DHT22;33128;51.580;5.170;2024-01-27T08:11:17;12.70;99.90
47382;DHT22;33128;51.580;5.170;2024-01-27T08:13:43;12.80;99.90
47382;DHT22;33128;51.580;5.170;2024-01-27T08:16:09;12.70;99.90
47382;DHT22;33128;51.580;5.170;2024-01-27T08:18:37;12.80;99.90
47382;DHT22;33128;51.580;5.170;2024-01-27T08:21:04;12.80;99.90
47382;DHT22;33128;51.580;5.170;2024-01-27T08:23:29;12.90;99.90
47382;DHT22;33128;51.580;5.170;2024-01-27T08:25:58;12.80;99.90
47382;DHT22;33128;51.580;5.170;2024-01-27T08:28:24;12.80;99.90
47382;DHT22;33128;51.580;5.170;2024-01-27T08:30:49;12.80;99.90
47382;DHT22;33128;51.580;5.170;2024-01-27T08:33:15;12.90;99.90
47382;DHT22;33128;51.580;5.170;2024-01-27T08:35:41;12.90;99.90
47382;DHT22;33128;51.580;5.170;2024-01-27T08:38:07;12.80;99.90
47382;DHT22;33128;51.580;5.170;2024-01-27T08:40:34;12.90;99.90
47382;DHT22;33128;51.580;5.170;2024-01-27T08:43:01;12.90;99.90
47382;DHT22;33128;51.580;5.170;2024-01-27T08:45:27;12.90;99.90
47382;DHT22;33128;51.580;5.170;2024-01-27T08:47:52;12.90;99.90
47382;DHT22;33128;51.580;5.170;2024-01-27T08:50:18;12.90;99.90
47382;DHT22;33128;51.580;5.170;2024-01-27T08:52:44;12.90;99.90
47382;DHT22;33128;51.580;5.170;2024-01-27T08:55:09;12.90;99.90
47382;DHT22;33128;51.580;5.170;2024-01-27T08:57:38;12.90;99.90
47382;DHT22;33128;51.580;5.170;2024-01-27T09:00:04;12.90;99.90
47382;DHT22;33128;51.580;5.170;2024-01-27T09:02:30;12.90;99.90
47382;DHT22;33128;51.580;5.170;2024-01-27T09:04:55;12.90;99.90
47382;DHT22;33128;51.580;5.170;2024-01-27T09:07:24;13.00;99.90
47382;DHT22;33128;51.580;5.170;2024-01-27T09:09:49;13.00;99.90
47382;DHT22;33128;51.580;5.170;2024-01-27T09:12:15;13.00;99.90
47382;DHT22;33128;51.580;5.170;2024-01-27T09:14:40;13.00;99.90
47382;DHT22;33128;51.580;5.170;2024-01-27T09:17:06;13.00;99.90
47382;DHT22;33128;51.580;5.170;2024-01-27T09:19:32;13.00;99.90
47382;DHT22;33128;51.580;5.170;2024-01-27T09:21:57;13.10;99.90
47382;DHT22;33128;51.580;5.170;2024-01-27T09:24:26;13.10;99.90
47382;DHT22;33128;51.580;5.170;2024-01-27T09:26:51;13.10;99.90
47382;DHT22;33128;51.580;5.170;2024-01-27T09:29:17;13.10;99.90
47382;DHT22;33128;51.580;5.170;2024-01-27T09:31:43;13.10;99.90
47382;DHT22;33128;51.580;5.170;2024-01-27T09:34:08;13.10;99.90
47382;DHT22;33128;51.580;5.170;2024-01-27T09:36:34;13.10;99.90
47382;DHT22;33128;51.580;5.170;2024-01-27T09:39:03;13.10;99.90
47382;DHT22;33128;51.580;5.170;2024-01-27T09:41:32;13.20;99.90
47382;DHT22;33128;51.580;5.170;2024-01-27T09:44:01;13.20;99.90
47382;DHT22;33128;51.580;5.170;2024-01-27T09:46:28;13.20;99.90
47382;DHT22;33128;51.580;5.170;2024-01-27T09:48:53;13.20;99.90
47382;DHT22;33128;51.580;5.170;2024-01-27T09:51:19;13.30;99.90
47382;DHT22;33128;51.580;5.170;2024-01-27T09:53:45;13.30;99.90
47382;DHT22;33128;51.580;5.170;2024-01-27T09:56:12;13.30;99.90
47382;DHT22;33128;51.580;5.170;2024-01-27T09:58:43;13.30;99.90
47382;DHT22;33128;51.580;5.170;2024-01-27T10:01:10;13.30;99.90
47382;DHT22;33128;51.580;5.170;2024-01-27T10:03:38;13.40;99.90
47382;DHT22;33128;51.580;5.170;2024-01-27T10:06:08;13.40;99.90
47382;DHT22;33128;51.580;5.170;2024-01-27T10:08:33;13.40;99.90
47382;DHT22;33128;51.580;5.170;2024-01-27T10:10:59;13.40;99.90
47382;DHT22;33128;51.580;5.170;2024-01-27T10:13:29;13.40;99.90
47382;DHT22;33128;51.580;5.170;2024-01-27T10:16:07;13.40;99.90
47382;DHT22;33128;51.580;5.170;2024-01-27T10:18:34;13.40;99.90
47382;DHT22;33128;51.580;5.170;2024-01-27T10:21:00;13.50;99.90
47382;DHT22;33128;51.580;5.170;2024-01-27T10:23:26;13.50;99.90
47382;DHT22;33128;51.580;5.170;2024-01-27T10:25:52;13.50;99.90
47382;DHT22;33128;51.580;5.170;2024-01-27T10:28:18;13.50;99.90
47382;DHT22;33128;51.580;5.170;2024-01-27T10:30:44;13.50;99.90
47382;DHT22;33128;51.580;5.170;2024-01-27T10:33:11;13.60;99.90
47382;DHT22;33128;51.580;5.170;2024-01-27T10:35:39;13.50;99.90
47382;DHT22;33128;51.580;5.170;2024-01-27T10:38:05;13.60;99.90
47382;DHT22;33128;51.580;5.170;2024-01-27T10:40:35;13.70;99.90
47382;DHT22;33128;51.580;5.170;2024-01-27T10:45:34;13.80;99.90
47382;DHT22;33128;51.580;5.170;2024-01-27T10:48:02;13.80;99.90
47382;DHT22;33128;51.580;5.170;2024-01-27T10:50:28;13.90;99.90
47382;DHT22;33128;51.580;5.170;2024-01-27T10:52:57;13.90;99.90
47382;DHT22;33128;51.580;5.170;2024-01-27T10:55:24;14.00;99.90
47382;DHT22;33128;51.580;5.170;2024-01-27T10:57:53;14.00;99.90
47382;DHT22;33128;51.580;5.170;2024-01-27T11:00:19;14.10;99.90
47382;DHT22;33128;51.580;5.170;2024-01-27T11:02:45;14.10;99.90
47382;DHT22;33128;51.580;5.170;2024-01-27T11:05:12;14.20;99.90
47382;DHT22;33128;51.580;5.170;2024-01-27T11:07:39;14.30;99.90
47382;DHT22;33128;51.580;5.170;2024-01-27T11:10:07;14.30;99.90
47382;DHT22;33128;51.580;5.170;2024-01-27T11:12:33;14.40;99.90
47382;DHT22;33128;51.580;5.170;2024-01-27T11:15:09;14.40;99.90
47382;DHT22;33128;51.580;5.170;2024-01-27T11:17:41;14.50;99.90
47382;DHT22;33128;51.580;5.170;2024-01-27T11:20:10;14.60;99.90
47382;DHT22;33128;51.580;5.170;2024-01-27T11:22:37;14.60;99.90
47382;DHT22;33128;51.580;5.170;2024-01-27T11:27:42;14.70;99.90
47382;DHT22;33128;51.580;5.170;2024-01-27T11:30:30;14.80;99.90
47382;DHT22;33128;51.580;5.170;2024-01-27T11:32:56;14.90;99.90
47382;DHT22;33128;51.580;5.170;2024-01-27T11:35:23;14.90;99.90
47382;DHT22;33128;51.580;5.170;2024-01-27T11:37:49;15.00;99.90
47382;DHT22;33128;51.580;5.170;2024-01-27T11:40:15;15.10;99.90
47382;DHT22;33128;51.580;5.170;2024-01-27T11:42:53;15.20;99.90
47382;DHT22;33128;51.580;5.170;2024-01-27T11:45:18;15.20;99.90
47382;DHT22;33128;51.580;5.170;2024-01-27T11:47:44;15.20;99.90
47382;DHT22;33128;51.580;5.170;2024-01-27T11:50:11;15.20;99.90
47382;DHT22;33128;51.580;5.170;2024-01-27T11:52:37;15.20;99.90
47382;DHT22;33128;51.580;5.170;2024-01-27T11:55:07;15.30;99.90
47382;DHT22;33128;51.580;5.170;2024-01-27T11:57:32;15.40;99.90
47382;DHT22;33128;51.580;5.170;2024-01-27T11:59:58;15.20;99.90
47382;DHT22;33128;51.580;5.170;2024-01-27T12:02:23;14.30;99.90
47382;DHT22;33128;51.580;5.170;2024-01-27T12:04:49;13.50;99.90
47382;DHT22;33128;51.580;5.170;2024-01-27T12:07:15;13.10;99.90
47382;DHT22;33128;51.580;5.170;2024-01-27T12:09:44;12.80;99.90
47382;DHT22;33128;51.580;5.170;2024-01-27T12:12:12;12.70;99.90
47382;DHT22;33128;51.580;5.170;2024-01-27T12:14:48;12.50;99.90
47382;DHT22;33128;51.580;5.170;2024-01-27T12:17:14;12.70;99.90
47382;DHT22;33128;51.580;5.170;2024-01-27T12:19:50;12.80;99.90
47382;DHT22;33128;51.580;5.170;2024-01-27T12:22:26;12.70;99.90
47382;DHT22;33128;51.580;5.170;2024-01-27T12:24:53;12.50;99.90
47382;DHT22;33128;51.580;5.170;2024-01-27T12:27:18;12.50;99.90
47382;DHT22;33128;51.580;5.170;2024-01-27T12:29:47;12.60;99.90
47382;DHT22;33128;51.580;5.170;2024-01-27T12:32:12;12.60;99.90
47382;DHT22;33128;51.580;5.170;2024-01-27T12:34:42;12.60;99.90
47382;DHT22;33128;51.580;5.170;2024-01-27T12:37:09;12.50;99.90
47382;DHT22;33128;51.580;5.170;2024-01-27T12:39:36;12.40;99.90
47382;DHT22;33128;51.580;5.170;2024-01-27T12:42:02;12.40;99.90
47382;DHT22;33128;51.580;5.170;2024-01-27T12:44:33;12.50;99.90
47382;DHT22;33128;51.580;5.170;2024-01-27T12:46:59;12.70;99.90
47382;DHT22;33128;51.580;5.170;2024-01-27T12:49:26;12.50;99.90
47382;DHT22;33128;51.580;5.170;2024-01-27T12:51:51;12.50;99.90
47382;DHT22;33128;51.580;5.170;2024-01-27T12:54:17;12.50;99.90
47382;DHT22;33128;51.580;5.170;2024-01-27T12:56:45;12.50;99.90
47382;DHT22;33128;51.580;5.170;2024-01-27T12:59:11;12.50;99.90
47382;DHT22;33128;51.580;5.170;2024-01-27T13:01:37;12.40;99.90
47382;DHT22;33128;51.580;5.170;2024-01-27T13:04:04;12.40;99.90
47382;DHT22;33128;51.580;5.170;2024-01-27T13:06:32;12.40;99.90
47382;DHT22;33128;51.580;5.170;2024-01-27T13:08:58;12.50;99.90
47382;DHT22;33128;51.580;5.170;2024-01-27T13:11:24;12.50;99.90
47382;DHT22;33128;51.580;5.170;2024-01-27T13:13:49;12.40;99.90
47382;DHT22;33128;51.580;5.170;2024-01-27T13:16:15;12.50;99.90
47382;DHT22;33128;51.580;5.170;2024-01-27T13:18:41;12.50;99.90
47382;DHT22;33128;51.580;5.170;2024-01-27T13:21:06;12.60;99.90
47382;DHT22;33128;51.580;5.170;2024-01-27T13:23:33;12.50;99.90
47382;DHT22;33128;51.580;5.170;2024-01-27T13:25:59;12.50;99.90
47382;DHT22;33128;51.580;5.170;2024-01-27T13:28:24;12.50;99.90
47382;DHT22;33128;51.580;5.170;2024-01-27T13:30:50;12.30;99.90
47382;DHT22;33128;51.580;5.170;2024-01-27T13:33:16;12.20;99.90
47382;DHT22;33128;51.580;5.170;2024-01-27T13:35:42;12.20;99.90
47382;DHT22;33128;51.580;5.170;2024-01-27T13:38:15;12.30;99.90
47382;DHT22;33128;51.580;5.170;2024-01-27T13:40:41;12.20;99.90
47382;DHT22;33128;51.580;5.170;2024-01-27T13:43:07;12.20;99.90
47382;DHT22;33128;51.580;5.170;2024-01-27T13:45:34;12.20;99.90
47382;DHT22;33128;51.580;5.170;2024-01-27T13:47:59;12.10;99.90
47382;DHT22;33128;51.580;5.170;2024-01-27T13:50:25;12.10;99.90
47382;DHT22;33128;51.580;5.170;2024-01-27T13:52:55;12.00;99.90
47382;DHT22;33128;51.580;5.170;2024-01-27T13:55:20;11.90;99.90
47382;DHT22;33128;51.580;5.170;2024-01-27T13:57:47;11.90;99.90
47382;DHT22;33128;51.580;5.170;2024-01-27T14:00:13;11.90;99.90
47382;DHT22;33128;51.580;5.170;2024-01-27T14:02:39;12.00;99.90
47382;DHT22;33128;51.580;5.170;2024-01-27T14:05:05;12.30;99.90
47382;DHT22;33128;51.580;5.170;2024-01-27T14:07:32;12.30;99.90
47382;DHT22;33128;51.580;5.170;2024-01-27T14:09:58;12.40;99.90
47382;DHT22;33128;51.580;5.170;2024-01-27T14:12:25;12.30;99.90
47382;DHT22;33128;51.580;5.170;2024-01-27T14:14:50;12.30;99.90
47382;DHT22;33128;51.580;5.170;2024-01-27T14:17:17;12.20;99.90
47382;DHT22;33128;51.580;5.170;2024-01-27T14:19:42;12.20;99.90
47382;DHT22;33128;51.580;5.170;2024-01-27T14:22:08;12.20;99.90
47382;DHT22;33128;51.580;5.170;2024-01-27T14:24:34;12.00;99.90
47382;DHT22;33128;51.580;5.170;2024-01-27T14:27:00;12.00;99.90
47382;DHT22;33128;51.580;5.170;2024-01-27T14:29:25;11.80;99.90
47382;DHT22;33128;51.580;5.170;2024-01-27T14:31:54;11.60;99.90
47382;DHT22;33128;51.580;5.170;2024-01-27T14:34:20;11.50;99.90
47382;DHT22;33128;51.580;5.170;2024-01-27T14:36:45;11.60;99.90
47382;DHT22;33128;51.580;5.170;2024-01-27T14:39:11;11.70;99.90
47382;DHT22;33128;51.580;5.170;2024-01-27T14:41:37;11.60;99.90
47382;DHT22;33128;51.580;5.170;2024-01-27T14:44:03;11.60;99.90
47382;DHT22;33128;51.580;5.170;2024-01-27T14:46:29;11.70;99.90
47382;DHT22;33128;51.580;5.170;2024-01-27T14:48:54;11.70;99.90
47382;DHT22;33128;51.580;5.170;2024-01-27T14:51:20;11.70;99.90
47382;DHT22;33128;51.580;5.170;2024-01-27T14:53:47;11.70;99.90
47382;DHT22;33128;51.580;5.170;2024-01-27T14:56:15;11.70;99.90
47382;DHT22;33128;51.580;5.170;2024-01-27T14:58:41;11.70;99.90
47382;DHT22;33128;51.580;5.170;2024-01-27T15:01:07;11.70;99.90
47382;DHT22;33128;51.580;5.170;2024-01-27T15:03:35;11.70;99.90
47382;DHT22;33128;51.580;5.170;2024-01-27T15:06:01;11.70;99.90
47382;DHT22;33128;51.580;5.170;2024-01-27T15:08:28;11.70;99.90
47382;DHT22;33128;51.580;5.170;2024-01-27T15:10:54;11.70;99.90
47382;DHT22;33128;51.580;5.170;2024-01-27T15:13:19;11.70;99.90
47382;DHT22;33128;51.580;5.170;2024-01-27T15:15:48;11.70;99.90
47382;DHT22;33128;51.580;5.170;2024-01-27T15:18:14;11.60;99.90
47382;DHT22;33128;51.580;5.170;2024-01-27T15:20:40;11.50;99.90
47382;DHT22;33128;51.580;5.170;2024-01-27T15:23:05;11.40;99.90
47382;DHT22;33128;51.580;5.170;2024-01-27T15:25:34;11.50;99.90
47382;DHT22;33128;51.580;5.170;2024-01-27T15:28:01;11.40;99.90
47382;DHT22;33128;51.580;5.170;2024-01-27T15:30:26;11.40;99.90
47382;DHT22;33128;51.580;5.170;2024-01-27T15:32:52;11.40;99.90
47382;DHT22;33128;51.580;5.170;2024-01-27T15:35:17;11.30;99.90